sensor_id;sensor_type;location;lat;lon;timestamp;temperature;humidity
46231;DHT22;31949;51.404;-0.038;2023-05-07T00:00:16;14.20;99.90
46231;DHT22;31949;51.404;-0.038;2023-05-07T00:02:46;14.20;99.90
46231;DHT22;31949;51.404;-0.038;2023-05-07T00:05:13;14.20;99.90
46231;DHT22;31949;51.404;-0.038;2023-05-07T00:07:41;14.30;99.90
46231;DHT22;31949;51.404;-0.038;2023-05-07T00:10:10;14.30;99.90
46231;DHT22;31949;51.404;-0.038;2023-05-07T00:12:40;14.30;99.90
46231;DHT22;31949;51.404;-0.038;2023-05-07T00:15:08;14.20;99.90
46231;DHT22;31949;51.404;-0.038;2023-05-07T00:17:36;14.30;99.90
46231;DHT22;31949;51.404;-0.038;2023-05-07T00:20:04;14.30;99.90
46231;DHT22;31949;51.404;-0.038;2023-05-07T00:22:32;14.30;99.90
46231;DHT22;31949;51.404;-0.038;2023-05-07T00:25:00;14.30;99.90
46231;DHT22;31949;51.404;-0.038;2023-05-07T00:27:27;14.20;99.90
46231;DHT22;31949;51.404;-0.038;2023-05-07T00:29:54;14.20;99.90
46231;DHT22;31949;51.404;-0.038;2023-05-07T00:32:21;14.20;99.90
46231;DHT22;31949;51.404;-0.038;2023-05-07T00:34:49;14.20;99.90
46231;DHT22;31949;51.404;-0.038;2023-05-07T00:37:18;14.20;99.90
46231;DHT22;31949;51.404;-0.038;2023-05-07T00:39:45;14.10;99.90
46231;DHT22;31949;51.404;-0.038;2023-05-07T00:42:12;14.00;99.90
46231;DHT22;31949;51.404;-0.038;2023-05-07T00:44:39;14.00;99.90
46231;DHT22;31949;51.404;-0.038;2023-05-07T00:47:07;14.10;99.90
46231;DHT22;31949;51.404;-0.038;2023-05-07T00:49:44;14.00;99.90
46231;DHT22;31949;51.404;-0.038;2023-05-07T00:52:16;14.10;99.90
46231;DHT22;31949;51.404;-0.038;2023-05-07T00:54:44;14.00;99.90
46231;DHT22;31949;51.404;-0.038;2023-05-07T00:57:12;14.10;99.90
46231;DHT22;31949;51.404;-0.038;2023-05-07T00:59:41;14.10;99.90
46231;DHT22;31949;51.404;-0.038;2023-05-07T01:02:08;14.10;99.90
46231;DHT22;31949;51.404;-0.038;2023-05-07T01:04:36;14.10;99.90
46231;DHT22;31949;51.404;-0.038;2023-05-07T01:07:05;14.00;99.90
46231;DHT22;31949;51.404;-0.038;2023-05-07T01:09:32;14.00;99.90
46231;DHT22;31949;51.404;-0.038;2023-05-07T01:12:03;14.00;99.90
46231;DHT22;31949;51.404;-0.038;2023-05-07T01:14:31;13.90;99.90
46231;DHT22;31949;51.404;-0.038;2023-05-07T01:17:00;14.00;99.90
46231;DHT22;31949;51.404;-0.038;2023-05-07T01:19:29;13.90;99.90
46231;DHT22;31949;51.404;-0.038;2023-05-07T01:22:02;13.90;99.90
46231;DHT22;31949;51.404;-0.038;2023-05-07T01:24:37;13.90;99.90
46231;DHT22;31949;51.404;-0.038;2023-05-07T01:27:06;13.90;99.90
46231;DHT22;31949;51.404;-0.038;2023-05-07T01:29:34;13.80;99.90
46231;DHT22;31949;51.404;-0.038;2023-05-07T01:32:02;13.80;99.90
46231;DHT22;31949;51.404;-0.038;2023-05-07T01:34:32;13.70;99.90
46231;DHT22;31949;51.404;-0.038;2023-05-07T01:37:01;13.70;99.90
46231;DHT22;31949;51.404;-0.038;2023-05-07T01:39:30;13.70;99.90
46231;DHT22;31949;51.404;-0.038;2023-05-07T01:41:58;13.70;99.90
46231;DHT22;31949;51.404;-0.038;2023-05-07T01:44:27;13.70;99.90
46231;DHT22;31949;51.404;-0.038;2023-05-07T01:46:54;13.70;99.90
46231;DHT22;31949;51.404;-0.038;2023-05-07T01:49:22;13.60;99.90
46231;DHT22;31949;51.404;-0.038;2023-05-07T01:51:49;13.50;99.90
46231;DHT22;31949;51.404;-0.038;2023-05-07T01:54:17;13.50;99.90
46231;DHT22;31949;51.404;-0.038;2023-05-07T01:56:45;13.50;99.90
46231;DHT22;31949;51.404;-0.038;2023-05-07T01:59:14;13.40;99.90
46231;DHT22;31949;51.404;-0.038;2023-05-07T02:01:42;13.30;99.90
46231;DHT22;31949;51.404;-0.038;2023-05-07T02:04:10;13.40;99.90
46231;DHT22;31949;51.404;-0.038;2023-05-07T02:06:38;13.30;99.90
46231;DHT22;31949;51.404;-0.038;2023-05-07T02:09:07;13.30;99.90
46231;DHT22;31949;51.404;-0.038;2023-05-07T02:11:37;13.30;99.90
46231;DHT22;31949;51.404;-0.038;2023-05-07T02:14:04;13.30;99.90
46231;DHT22;31949;51.404;-0.038;2023-05-07T02:16:32;13.40;99.90
46231;DHT22;31949;51.404;-0.038;2023-05-07T02:18:59;13.40;99.90
46231;DHT22;31949;51.404;-0.038;2023-05-07T02:21:27;13.40;99.90
46231;DHT22;31949;51.404;-0.038;2023-05-07T02:23:57;13.40;99.90
46231;DHT22;31949;51.404;-0.038;2023-05-07T02:26:24;13.40;99.90
46231;DHT22;31949;51.404;-0.038;2023-05-07T02:28:53;13.40;99.90
46231;DHT22;31949;51.404;-0.038;2023-05-07T02:31:20;13.40;99.90
46231;DHT22;31949;51.404;-0.038;2023-05-07T02:33:48;13.50;99.90
46231;DHT22;31949;51.404;-0.038;2023-05-07T02:36:15;13.40;99.90
46231;DHT22;31949;51.404;-0.038;2023-05-07T02:39:03;13.40;99.90
46231;DHT22;31949;51.404;-0.038;2023-05-07T02:41:30;13.40;99.90
46231;DHT22;31949;51.404;-0.038;2023-05-07T02:43:57;13.50;99.90
46231;DHT22;31949;51.404;-0.038;2023-05-07T02:46:25;13.60;99.90
46231;DHT22;31949;51.404;-0.038;2023-05-07T02:48:59;13.50;99.90
46231;DHT22;31949;51.404;-0.038;2023-05-07T02:51:26;13.50;99.90
46231;DHT22;31949;51.404;-0.038;2023-05-07T02:53:56;13.40;99.90
46231;DHT22;31949;51.404;-0.038;2023-05-07T02:56:26;13.40;99.90
46231;DHT22;31949;51.404;-0.038;2023-05-07T02:58:54;13.40;99.90
46231;DHT22;31949;51.404;-0.038;2023-05-07T03:01:24;13.40;99.90
46231;DHT22;31949;51.404;-0.038;2023-05-07T03:04:03;13.40;99.90
46231;DHT22;31949;51.404;-0.038;2023-05-07T03:06:30;13.30;99.90
46231;DHT22;31949;51.404;-0.038;2023-05-07T03:08:57;13.40;99.90
46231;DHT22;31949;51.404;-0.038;2023-05-07T03:11:25;13.40;99.90
46231;DHT22;31949;51.404;-0.038;2023-05-07T03:13:52;13.40;99.90
46231;DHT22;31949;51.404;-0.038;2023-05-07T03:16:21;13.40;99.90
46231;DHT22;31949;51.404;-0.038;2023-05-07T03:18:48;13.40;99.90
46231;DHT22;31949;51.404;-0.038;2023-05-07T03:21:15;13.40;99.90
46231;DHT22;31949;51.404;-0.038;2023-05-07T03:23:42;13.40;99.90
46231;DHT22;31949;51.404;-0.038;2023-05-07T03:26:10;13.40;99.90
46231;DHT22;31949;51.404;-0.038;2023-05-07T03:28:37;13.40;99.90
46231;DHT22;31949;51.404;-0.038;2023-05-07T03:31:08;13.40;99.90
46231;DHT22;31949;51.404;-0.038;2023-05-07T03:33:50;13.40;99.90
46231;DHT22;31949;51.404;-0.038;2023-05-07T03:36:18;13.40;99.90
46231;DHT22;31949;51.404;-0.038;2023-05-07T03:38:46;13.40;99.90
46231;DHT22;31949;51.404;-0.038;2023-05-07T03:41:17;13.40;99.90
46231;DHT22;31949;51.404;-0.038;2023-05-07T03:43:45;13.40;99.90
46231;DHT22;31949;51.404;-0.038;2023-05-07T03:46:13;13.40;99.90
46231;DHT22;31949;51.404;-0.038;2023-05-07T03:48:41;13.40;99.90
46231;DHT22;31949;51.404;-0.038;2023-05-07T03:51:08;13.50;99.90
46231;DHT22;31949;51.404;-0.038;2023-05-07T03:53:35;13.40;99.90
46231;DHT22;31949;51.404;-0.038;2023-05-07T03:56:03;13.40;99.90
46231;DHT22;31949;51.404;-0.038;2023-05-07T03:58:35;13.40;99.90
46231;DHT22;31949;51.404;-0.038;2023-05-07T04:01:07;13.40;99.90
46231;DHT22;31949;51.404;-0.038;2023-05-07T04:03:34;13.30;99.90
46231;DHT22;31949;51.404;-0.038;2023-05-07T04:06:02;13.30;99.90
46231;DHT22;31949;51.404;-0.038;2023-05-07T04:08:32;13.30;99.90
46231;DHT22;31949;51.404;-0.038;2023-05-07T04:10:59;13.40;99.90
46231;DHT22;31949;51.404;-0.038;2023-05-07T04:13:30;13.40;99.90
46231;DHT22;31949;51.404;-0.038;2023-05-07T04:16:01;13.40;99.90
46231;DHT22;31949;51.404;-0.038;2023-05-07T04:18:29;13.30;99.90
46231;DHT22;31949;51.404;-0.038;2023-05-07T04:20:56;13.30;99.90
46231;DHT22;31949;51.404;-0.038;2023-05-07T04:23:24;13.30;99.90
46231;DHT22;31949;51.404;-0.038;2023-05-07T04:25:52;13.30;99.90
46231;DHT22;31949;51.404;-0.038;2023-05-07T04:28:24;13.30;99.90
46231;DHT22;31949;51.404;-0.038;2023-05-07T04:30:52;13.30;99.90
46231;DHT22;31949;51.404;-0.038;2023-05-07T04:33:21;13.40;99.90
46231;DHT22;31949;51.404;-0.038;2023-05-07T04:35:49;13.30;99.90
46231;DHT22;31949;51.404;-0.038;2023-05-07T04:38:16;13.30;99.90
46231;DHT22;31949;51.404;-0.038;2023-05-07T04:40:47;13.40;99.90
46231;DHT22;31949;51.404;-0.038;2023-05-07T04:43:18;13.40;99.90
46231;DHT22;31949;51.404;-0.038;2023-05-07T04:45:52;13.40;99.90
46231;DHT22;31949;51.404;-0.038;2023-05-07T04:48:22;13.40;99.90
46231;DHT22;31949;51.404;-0.038;2023-05-07T04:50:51;13.40;99.90
46231;DHT22;31949;51.404;-0.038;2023-05-07T04:53:19;13.40;99.90
46231;DHT22;31949;51.404;-0.038;2023-05-07T04:55:48;13.30;99.90
46231;DHT22;31949;51.404;-0.038;2023-05-07T04:58:16;13.30;99.90
46231;DHT22;31949;51.404;-0.038;2023-05-07T05:00:46;13.40;99.90
46231;DHT22;31949;51.404;-0.038;2023-05-07T05:03:13;13.30;99.90
46231;DHT22;31949;51.404;-0.038;2023-05-07T05:05:41;13.30;99.90
46231;DHT22;31949;51.404;-0.038;2023-05-07T05:08:09;13.30;99.90
46231;DHT22;31949;51.404;-0.038;2023-05-07T05:10:38;13.40;99.90
46231;DHT22;31949;51.404;-0.038;2023-05-07T05:13:06;13.40;99.90
46231;DHT22;31949;51.404;-0.038;2023-05-07T05:15:34;13.40;99.90
46231;DHT22;31949;51.404;-0.038;2023-05-07T05:18:02;13.40;99.90
46231;DHT22;31949;51.404;-0.038;2023-05-07T05:20:30;13.40;99.90
46231;DHT22;31949;51.404;-0.038;2023-05-07T05:22:58;13.40;99.90
46231;DHT22;31949;51.404;-0.038;2023-05-07T05:25:25;13.40;99.90
46231;DHT22;31949;51.404;-0.038;2023-05-07T05:27:52;13.40;99.90
46231;DHT22;31949;51.404;-0.038;2023-05-07T05:30:20;13.40;99.90
46231;DHT22;31949;51.404;-0.038;2023-05-07T05:32:49;13.40;99.90
46231;DHT22;31949;51.404;-0.038;2023-05-07T05:35:16;13.40;99.90
46231;DHT22;31949;51.404;-0.038;2023-05-07T05:37:44;13.40;99.90
46231;DHT22;31949;51.404;-0.038;2023-05-07T05:40:12;13.50;99.90
46231;DHT22;31949;51.404;-0.038;2023-05-07T05:42:39;13.60;99.90
46231;DHT22;31949;51.404;-0.038;2023-05-07T05:45:08;13.50;99.90
46231;DHT22;31949;51.404;-0.038;2023-05-07T05:47:37;13.50;99.90
46231;DHT22;31949;51.404;-0.038;2023-05-07T05:50:05;13.50;99.90
46231;DHT22;31949;51.404;-0.038;2023-05-07T05:52:33;13.50;99.90
46231;DHT22;31949;51.404;-0.038;2023-05-07T05:55:00;13.50;99.90
46231;DHT22;31949;51.404;-0.038;2023-05-07T05:57:28;13.50;99.90
46231;DHT22;31949;51.404;-0.038;2023-05-07T05:59:56;13.50;99.90
46231;DHT22;31949;51.404;-0.038;2023-05-07T06:02:24;13.50;99.90
46231;DHT22;31949;51.404;-0.038;2023-05-07T06:04:51;13.50;99.90
46231;DHT22;31949;51.404;-0.038;2023-05-07T06:07:21;13.60;99.90
46231;DHT22;31949;51.404;-0.038;2023-05-07T06:09:49;13.60;99.90
46231;DHT22;31949;51.404;-0.038;2023-05-07T06:12:16;13.60;99.90
46231;DHT22;31949;51.404;-0.038;2023-05-07T06:14:43;13.50;99.90
46231;DHT22;31949;51.404;-0.038;2023-05-07T06:17:11;13.50;99.90
46231;DHT22;31949;51.404;-0.038;2023-05-07T06:19:39;13.50;99.90
46231;DHT22;31949;51.404;-0.038;2023-05-07T06:22:07;13.60;99.90
46231;DHT22;31949;51.404;-0.038;2023-05-07T06:24:34;13.60;99.90
46231;DHT22;31949;51.404;-0.038;2023-05-07T06:27:04;13.60;99.90
46231;DHT22;31949;51.404;-0.038;2023-05-07T06:29:31;13.60;99.90
46231;DHT22;31949;51.404;-0.038;2023-05-07T06:32:06;13.70;99.90
46231;DHT22;31949;51.404;-0.038;2023-05-07T06:34:35;13.70;99.90
46231;DHT22;31949;51.404;-0.038;2023-05-07T06:37:03;13.70;99.90
46231;DHT22;31949;51.404;-0.038;2023-05-07T06:39:56;13.70;99.90
46231;DHT22;31949;51.404;-0.038;2023-05-07T06:42:26;13.70;99.90
46231;DHT22;31949;51.404;-0.038;2023-05-07T06:44:58;13.80;99.90
46231;DHT22;31949;51.404;-0.038;2023-05-07T06:47:28;13.80;99.90
46231;DHT22;31949;51.404;-0.038;2023-05-07T06:49:55;13.80;99.90
46231;DHT22;31949;51.404;-0.038;2023-05-07T06:52:25;13.80;99.90
46231;DHT22;31949;51.404;-0.038;2023-05-07T06:54:53;13.80;99.90
46231;DHT22;31949;51.404;-0.038;2023-05-07T06:57:22;13.70;99.90
46231;DHT22;31949;51.404;-0.038;2023-05-07T06:59:49;13.70;99.90
46231;DHT22;31949;51.404;-0.038;2023-05-07T07:02:17;13.80;99.90
46231;DHT22;31949;51.404;-0.038;2023-05-07T07:04:46;13.80;99.90
46231;DHT22;31949;51.404;-0.038;2023-05-07T07:07:14;13.80;99.90
46231;DHT22;31949;51.404;-0.038;2023-05-07T07:09:43;13.80;99.90
46231;DHT22;31949;51.404;-0.038;2023-05-07T07:12:14;13.90;99.90
46231;DHT22;31949;51.404;-0.038;2023-05-07T07:14:42;13.90;99.90
46231;DHT22;31949;51.404;-0.038;2023-05-07T07:17:09;13.90;99.90
46231;DHT22;31949;51.404;-0.038;2023-05-07T07:19:36;14.00;99.90
46231;DHT22;31949;51.404;-0.038;2023-05-07T07:22:04;13.90;99.90
46231;DHT22;31949;51.404;-0.038;2023-05-07T07:24:32;13.90;99.90
46231;DHT22;31949;51.404;-0.038;2023-05-07T07:27:03;13.90;99.90
46231;DHT22;31949;51.404;-0.038;2023-05-07T07:29:33;14.00;99.90
46231;DHT22;31949;51.404;-0.038;2023-05-07T07:32:01;13.90;99.90
46231;DHT22;31949;51.404;-0.038;2023-05-07T07:34:29;14.00;99.90
46231;DHT22;31949;51.404;-0.038;2023-05-07T07:36:56;14.00;99.90
46231;DHT22;31949;51.404;-0.038;2023-05-07T07:39:24;14.00;99.90
46231;DHT22;31949;51.404;-0.038;2023-05-07T07:41:54;14.10;99.90
46231;DHT22;31949;51.404;-0.038;2023-05-07T07:44:22;14.10;99.90
46231;DHT22;31949;51.404;-0.038;2023-05-07T07:46:54;14.10;99.90
46231;DHT22;31949;51.404;-0.038;2023-05-07T07:49:24;14.20;99.90
46231;DHT22;31949;51.404;-0.038;2023-05-07T07:51:51;14.20;99.90
46231;DHT22;31949;51.404;-0.038;2023-05-07T07:54:18;14.30;99.90
46231;DHT22;31949;51.404;-0.038;2023-05-07T07:56:45;14.30;99.90
46231;DHT22;31949;51.404;-0.038;2023-05-07T07:59:14;14.30;99.90
46231;DHT22;31949;51.404;-0.038;2023-05-07T08:01:45;14.40;99.90
46231;DHT22;31949;51.404;-0.038;2023-05-07T08:04:12;14.40;99.90
46231;DHT22;31949;51.404;-0.038;2023-05-07T08:06:41;14.50;99.90
46231;DHT22;31949;51.404;-0.038;2023-05-07T08:09:10;14.50;99.90
46231;DHT22;31949;51.404;-0.038;2023-05-07T08:11:39;14.60;99.90
46231;DHT22;31949;51.404;-0.038;2023-05-07T08:14:07;14.60;99.90
46231;DHT22;31949;51.404;-0.038;2023-05-07T08:16:34;14.60;99.90
46231;DHT22;31949;51.404;-0.038;2023-05-07T08:19:02;14.70;99.90
46231;DHT22;31949;51.404;-0.038;2023-05-07T08:21:29;14.70;99.90
46231;DHT22;31949;51.404;-0.038;2023-05-07T08:24:00;14.70;99.90
46231;DHT22;31949;51.404;-0.038;2023-05-07T08:26:28;14.70;99.90
46231;DHT22;31949;51.404;-0.038;2023-05-07T08:28:55;14.90;99.90
46231;DHT22;31949;51.404;-0.038;2023-05-07T08:31:23;14.90;99.90
46231;DHT22;31949;51.404;-0.038;2023-05-07T08:33:51;15.10;99.90
46231;DHT22;31949;51.404;-0.038;2023-05-07T08:36:18;15.10;99.90
46231;DHT22;31949;51.404;-0.038;2023-05-07T08:38:46;15.30;99.90
46231;DHT22;31949;51.404;-0.038;2023-05-07T08:41:13;15.30;99.90
46231;DHT22;31949;51.404;-0.038;2023-05-07T08:43:48;15.40;99.90
46231;DHT22;31949;51.404;-0.038;2023-05-07T08:46:18;15.60;99.90
46231;DHT22;31949;51.404;-0.038;2023-05-07T08:48:51;15.60;99.90
46231;DHT22;31949;51.404;-0.038;2023-05-07T08:51:20;15.70;99.90
46231;DHT22;31949;51.404;-0.038;2023-05-07T08:53:49;15.80;99.90
46231;DHT22;31949;51.404;-0.038;2023-05-07T08:56:23;16.00;99.90
46231;DHT22;31949;51.404;-0.038;2023-05-07T08:58:52;16.20;99.90
46231;DHT22;31949;51.404;-0.038;2023-05-07T09:01:24;16.40;99.90
46231;DHT22;31949;51.404;-0.038;2023-05-07T09:03:53;16.50;99.90
46231;DHT22;31949;51.404;-0.038;2023-05-07T09:06:22;16.70;99.90
46231;DHT22;31949;51.404;-0.038;2023-05-07T09:08:54;16.70;99.90
46231;DHT22;31949;51.404;-0.038;2023-05-07T09:11:25;16.70;99.90
46231;DHT22;31949;51.404;-0.038;2023-05-07T09:13:55;16.70;99.90
46231;DHT22;31949;51.404;-0.038;2023-05-07T09:16:24;16.80;99.90
46231;DHT22;31949;51.404;-0.038;2023-05-07T09:18:53;16.80;99.90
46231;DHT22;31949;51.404;-0.038;2023-05-07T09:21:22;16.90;99.90
46231;DHT22;31949;51.404;-0.038;2023-05-07T09:23:54;17.20;99.90
46231;DHT22;31949;51.404;-0.038;2023-05-07T09:26:28;17.40;99.90
46231;DHT22;31949;51.404;-0.038;2023-05-07T09:28:55;17.60;99.90
46231;DHT22;31949;51.404;-0.038;2023-05-07T09:31:23;17.60;99.90
46231;DHT22;31949;51.404;-0.038;2023-05-07T09:33:53;17.60;99.90
46231;DHT22;31949;51.404;-0.038;2023-05-07T09:36:27;17.60;99.90
46231;DHT22;31949;51.404;-0.038;2023-05-07T09:38:54;17.60;99.90
46231;DHT22;31949;51.404;-0.038;2023-05-07T09:41:22;17.50;99.90
46231;DHT22;31949;51.404;-0.038;2023-05-07T09:44:18;17.40;99.90
46231;DHT22;31949;51.404;-0.038;2023-05-07T09:46:53;17.50;99.90
46231;DHT22;31949;51.404;-0.038;2023-05-07T09:49:29;17.40;99.90
46231;DHT22;31949;51.404;-0.038;2023-05-07T09:52:06;17.30;99.90
46231;DHT22;31949;51.404;-0.038;2023-05-07T09:54:40;17.20;99.90
46231;DHT22;31949;51.404;-0.038;2023-05-07T09:57:11;17.30;99.90
46231;DHT22;31949;51.404;-0.038;2023-05-07T09:59:43;17.40;99.90
46231;DHT22;31949;51.404;-0.038;2023-05-07T10:02:14;17.30;99.90
46231;DHT22;31949;51.404;-0.038;2023-05-07T10:04:48;17.30;99.90
46231;DHT22;31949;51.404;-0.038;2023-05-07T10:07:20;17.20;99.90
46231;DHT22;31949;51.404;-0.038;2023-05-07T10:09:51;17.30;99.90
46231;DHT22;31949;51.404;-0.038;2023-05-07T10:12:27;17.30;99.90
46231;DHT22;31949;51.404;-0.038;2023-05-07T10:14:56;17.30;99.90
46231;DHT22;31949;51.404;-0.038;2023-05-07T10:17:24;17.30;99.90
46231;DHT22;31949;51.404;-0.038;2023-05-07T10:19:53;17.30;99.90
46231;DHT22;31949;51.404;-0.038;2023-05-07T10:22:22;17.30;99.90
46231;DHT22;31949;51.404;-0.038;2023-05-07T10:24:52;17.50;99.90
46231;DHT22;31949;51.404;-0.038;2023-05-07T10:27:22;17.60;99.90
46231;DHT22;31949;51.404;-0.038;2023-05-07T10:33:11;17.50;99.90
46231;DHT22;31949;51.404;-0.038;2023-05-07T10:35:45;17.60;99.90
46231;DHT22;31949;51.404;-0.038;2023-05-07T10:38:14;17.70;99.90
46231;DHT22;31949;51.404;-0.038;2023-05-07T10:40:44;17.60;99.90
46231;DHT22;31949;51.404;-0.038;2023-05-07T10:43:15;17.60;99.90
46231;DHT22;31949;51.404;-0.038;2023-05-07T10:46:15;17.70;99.90
46231;DHT22;31949;51.404;-0.038;2023-05-07T10:52:22;17.80;99.90
46231;DHT22;31949;51.404;-0.038;2023-05-07T10:57:56;17.90;99.90
46231;DHT22;31949;51.404;-0.038;2023-05-07T11:03:07;18.00;99.90
46231;DHT22;31949;51.404;-0.038;2023-05-07T11:05:44;18.00;99.90
46231;DHT22;31949;51.404;-0.038;2023-05-07T11:08:18;17.90;99.90
46231;DHT22;31949;51.404;-0.038;2023-05-07T11:10:57;17.90;99.90
46231;DHT22;31949;51.404;-0.038;2023-05-07T11:13:51;17.90;99.90
46231;DHT22;31949;51.404;-0.038;2023-05-07T11:16:35;17.90;99.90
46231;DHT22;31949;51.404;-0.038;2023-05-07T11:19:16;18.00;99.90
46231;DHT22;31949;51.404;-0.038;2023-05-07T11:21:47;18.10;99.90
46231;DHT22;31949;51.404;-0.038;2023-05-07T11:24:25;18.10;99.90
46231;DHT22;31949;51.404;-0.038;2023-05-07T11:26:57;18.30;99.90
46231;DHT22;31949;51.404;-0.038;2023-05-07T11:29:26;18.30;99.90
46231;DHT22;31949;51.404;-0.038;2023-05-07T11:32:02;18.40;99.90
46231;DHT22;31949;51.404;-0.038;2023-05-07T11:34:36;18.40;99.90
46231;DHT22;31949;51.404;-0.038;2023-05-07T11:37:04;18.40;99.90
46231;DHT22;31949;51.404;-0.038;2023-05-07T11:39:44;18.40;99.90
46231;DHT22;31949;51.404;-0.038;2023-05-07T11:42:35;18.40;99.90
46231;DHT22;31949;51.404;-0.038;2023-05-07T11:45:03;18.40;99.90
46231;DHT22;31949;51.404;-0.038;2023-05-07T11:47:33;18.30;99.90
46231;DHT22;31949;51.404;-0.038;2023-05-07T11:50:06;18.20;99.90
46231;DHT22;31949;51.404;-0.038;2023-05-07T11:52:35;18.20;99.90
46231;DHT22;31949;51.404;-0.038;2023-05-07T11:55:03;18.20;99.90
46231;DHT22;31949;51.404;-0.038;2023-05-07T11:57:33;18.30;99.90
46231;DHT22;31949;51.404;-0.038;2023-05-07T12:00:01;18.30;99.90
46231;DHT22;31949;51.404;-0.038;2023-05-07T12:02:42;18.30;99.90
46231;DHT22;31949;51.404;-0.038;2023-05-07T12:05:09;18.40;99.90
46231;DHT22;31949;51.404;-0.038;2023-05-07T12:07:37;18.50;99.90
46231;DHT22;31949;51.404;-0.038;2023-05-07T12:10:05;18.60;99.90
46231;DHT22;31949;51.404;-0.038;2023-05-07T12:12:40;18.70;99.90
46231;DHT22;31949;51.404;-0.038;2023-05-07T12:15:09;18.80;99.90
46231;DHT22;31949;51.404;-0.038;2023-05-07T12:17:37;18.80;99.90
46231;DHT22;31949;51.404;-0.038;2023-05-07T12:20:06;18.90;99.90
46231;DHT22;31949;51.404;-0.038;2023-05-07T12:22:34;18.90;99.90
46231;DHT22;31949;51.404;-0.038;2023-05-07T12:25:01;19.00;99.90
46231;DHT22;31949;51.404;-0.038;2023-05-07T12:27:30;19.10;99.90
46231;DHT22;31949;51.404;-0.038;2023-05-07T12:29:58;19.00;99.90
46231;DHT22;31949;51.404;-0.038;2023-05-07T12:32:26;19.10;99.90
46231;DHT22;31949;51.404;-0.038;2023-05-07T12:34:53;19.20;99.90
46231;DHT22;31949;51.404;-0.038;2023-05-07T12:37:24;19.20;99.90
46231;DHT22;31949;51.404;-0.038;2023-05-07T12:40:08;19.20;99.90
46231;DHT22;31949;51.404;-0.038;2023-05-07T12:42:36;19.20;99.90
46231;DHT22;31949;51.404;-0.038;2023-05-07T12:45:17;19.10;99.90
46231;DHT22;31949;51.404;-0.038;2023-05-07T12:47:46;19.20;99.90
46231;DHT22;31949;51.404;-0.038;2023-05-07T12:50:15;19.20;99.90
46231;DHT22;31949;51.404;-0.038;2023-05-07T12:52:45;19.20;99.90
46231;DHT22;31949;51.404;-0.038;2023-05-07T12:55:14;19.20;99.90
46231;DHT22;31949;51.404;-0.038;2023-05-07T12:57:45;19.50;99.90
46231;DHT22;31949;51.404;-0.038;2023-05-07T13:00:14;19.40;99.90
46231;DHT22;31949;51.404;-0.038;2023-05-07T13:02:43;19.50;99.90
46231;DHT22;31949;51.404;-0.038;2023-05-07T13:05:14;19.40;99.90
46231;DHT22;31949;51.404;-0.038;2023-05-07T13:07:53;19.60;99.90
46231;DHT22;31949;51.404;-0.038;2023-05-07T13:10:22;19.60;99.90
46231;DHT22;31949;51.404;-0.038;2023-05-07T13:12:50;19.70;99.90
46231;DHT22;31949;51.404;-0.038;2023-05-07T13:15:18;19.80;99.90
46231;DHT22;31949;51.404;-0.038;2023-05-07T13:17:46;19.90;99.90
46231;DHT22;31949;51.404;-0.038;2023-05-07T13:20:13;19.90;99.90
46231;DHT22;31949;51.404;-0.038;2023-05-07T13:22:40;19.90;99.90
46231;DHT22;31949;51.404;-0.038;2023-05-07T13:25:08;19.80;99.90
46231;DHT22;31949;51.404;-0.038;2023-05-07T13:27:36;19.70;99.90
46231;DHT22;31949;51.404;-0.038;2023-05-07T13:30:04;19.70;99.90
46231;DHT22;31949;51.404;-0.038;2023-05-07T13:32:32;19.60;99.90
46231;DHT22;31949;51.404;-0.038;2023-05-07T13:34:59;19.70;99.90
46231;DHT22;31949;51.404;-0.038;2023-05-07T13:37:27;19.80;99.90
46231;DHT22;31949;51.404;-0.038;2023-05-07T13:39:54;19.80;99.90
46231;DHT22;31949;51.404;-0.038;2023-05-07T13:42:21;19.90;99.90
46231;DHT22;31949;51.404;-0.038;2023-05-07T13:44:48;19.80;99.90
46231;DHT22;31949;51.404;-0.038;2023-05-07T13:47:16;19.80;99.90
46231;DHT22;31949;51.404;-0.038;2023-05-07T13:49:43;19.60;99.90
46231;DHT22;31949;51.404;-0.038;2023-05-07T13:52:10;19.50;99.90
46231;DHT22;31949;51.404;-0.038;2023-05-07T13:54:38;19.60;99.90
46231;DHT22;31949;51.404;-0.038;2023-05-07T13:57:05;19.60;99.90
46231;DHT22;31949;51.404;-0.038;2023-05-07T13:59:32;19.60;99.90
46231;DHT22;31949;51.404;-0.038;2023-05-07T14:01:59;19.60;99.90
46231;DHT22;31949;51.404;-0.038;2023-05-07T14:04:27;19.60;99.90
46231;DHT22;31949;51.404;-0.038;2023-05-07T14:06:54;19.80;99.90
46231;DHT22;31949;51.404;-0.038;2023-05-07T14:09:21;19.90;99.90
46231;DHT22;31949;51.404;-0.038;2023-05-07T14:11:48;20.00;99.90
46231;DHT22;31949;51.404;-0.038;2023-05-07T14:14:18;20.00;99.90
46231;DHT22;31949;51.404;-0.038;2023-05-07T14:16:45;20.20;99.90
46231;DHT22;31949;51.404;-0.038;2023-05-07T14:19:16;20.20;99.90
46231;DHT22;31949;51.404;-0.038;2023-05-07T14:21:43;20.20;99.90
46231;DHT22;31949;51.404;-0.038;2023-05-07T14:24:10;20.10;99.90
46231;DHT22;31949;51.404;-0.038;2023-05-07T14:26:38;20.10;99.90
46231;DHT22;31949;51.404;-0.038;2023-05-07T14:29:05;20.20;99.90
46231;DHT22;31949;51.404;-0.038;2023-05-07T14:31:32;20.20;99.90
46231;DHT22;31949;51.404;-0.038;2023-05-07T14:34:00;20.30;99.90
46231;DHT22;31949;51.404;-0.038;2023-05-07T14:36:27;20.40;99.90
46231;DHT22;31949;51.404;-0.038;2023-05-07T14:38:54;20.40;99.90
46231;DHT22;31949;51.404;-0.038;2023-05-07T14:41:22;20.40;99.90
46231;DHT22;31949;51.404;-0.038;2023-05-07T14:43:49;20.40;99.90
46231;DHT22;31949;51.404;-0.038;2023-05-07T14:46:20;20.50;99.90
46231;DHT22;31949;51.404;-0.038;2023-05-07T14:48:47;20.40;99.90
46231;DHT22;31949;51.404;-0.038;2023-05-07T14:51:14;20.50;99.90
46231;DHT22;31949;51.404;-0.038;2023-05-07T14:53:42;20.40;99.90
46231;DHT22;31949;51.404;-0.038;2023-05-07T14:56:09;20.60;99.90
46231;DHT22;31949;51.404;-0.038;2023-05-07T14:58:36;20.60;99.90
46231;DHT22;31949;51.404;-0.038;2023-05-07T15:01:04;20.60;99.90
46231;DHT22;31949;51.404;-0.038;2023-05-07T15:03:31;20.70;99.90
46231;DHT22;31949;51.404;-0.038;2023-05-07T15:05:59;20.70;99.90
46231;DHT22;31949;51.404;-0.038;2023-05-07T15:08:26;20.60;99.90
46231;DHT22;31949;51.404;-0.038;2023-05-07T15:10:53;20.50;99.90
46231;DHT22;31949;51.404;-0.038;2023-05-07T15:13:22;20.60;99.90
46231;DHT22;31949;51.404;-0.038;2023-05-07T15:15:49;20.60;99.90
46231;DHT22;31949;51.404;-0.038;2023-05-07T15:18:17;20.80;99.90
46231;DHT22;31949;51.404;-0.038;2023-05-07T15:20:48;20.90;99.90
46231;DHT22;31949;51.404;-0.038;2023-05-07T15:23:16;20.90;99.90
46231;DHT22;31949;51.404;-0.038;2023-05-07T15:25:46;20.90;99.90
46231;DHT22;31949;51.404;-0.038;2023-05-07T15:28:16;20.90;99.90
46231;DHT22;31949;51.404;-0.038;2023-05-07T15:30:43;21.00;99.90
46231;DHT22;31949;51.404;-0.038;2023-05-07T15:33:10;20.90;99.90
46231;DHT22;31949;51.404;-0.038;2023-05-07T15:35:37;20.70;99.90
46231;DHT22;31949;51.404;-0.038;2023-05-07T15:38:05;20.70;99.90
46231;DHT22;31949;51.404;-0.038;2023-05-07T15:40:32;20.70;99.90